Latest Weather Observations for Centre Island

IDD60801

Issued at 11:31 pm CST Tuesday 12 December 2017 (issued every 30 minutes, with the page automatically refreshed every 10 minutes)

About weather observations | Map of weather stations | Latest weather observations for NT | Other Formats
Station Details ID: 014703 Name: CENTRE ISLAND Lat: -15.74 Lon: 136.82 Height: 12.2 m
Data from the previous 72 hours. | See also: Recent months at Centre Island
Date/Time
CST
Temp
°C
App
Temp
°C
Dew
Point
°C
Rel
Hum
%
Delta-T
°C
Wind Press
QNH
hPa
Press
MSL
hPa
Rain since
9am
mm
Dir  Spd
km/h
Gust
km/h
Spd
kts
Gust
kts
12/11:30pm 29.7 31.9 24.8 75 3.4 ENE 22 28 12 15 1009.6 1009.5 0.0
12/11:00pm 29.7 32.1 24.6 74 3.6 NE 20 24 11 13 1009.4 1009.3 0.0
12/10:30pm 29.7 32.7 24.6 74 3.6 ENE 17 20 9 11 1009.4 1009.3 0.0
12/10:00pm 30.0 32.4 24.6 73 3.8 E 20 26 11 14 1009.3 1009.2 0.0
12/09:30pm 30.2 32.3 24.1 70 4.2 ENE 20 26 11 14 1008.3 1008.2 0.0
12/09:00pm 30.3 33.0 24.2 70 4.3 ENE 17 24 9 13 1008.3 1008.2 0.0
12/08:30pm 30.4 32.7 24.1 69 4.4 NE 19 24 10 13 1008.3 1008.2 0.0
12/08:00pm 30.6 32.6 24.0 68 4.6 NE 20 26 11 14 1007.8 1007.7 0.0
12/07:30pm 30.7 32.7 23.9 67 4.7 NE 20 28 11 15 1007.6 1007.5 0.0
12/07:00pm 31.2 33.0 22.5 60 5.9 N 17 22 9 12 1007.0 1006.9 0.0
12/06:30pm 31.7 33.4 22.4 58 6.4 N 17 22 9 12 1006.5 1006.4 0.0
12/06:00pm 32.7 34.3 22.2 54 7.2 N 17 22 9 12 1006.2 1006.1 0.0
12/05:30pm 32.8 36.2 24.6 62 5.8 NNE 15 22 8 12 1006.4 1006.3 0.0
12/05:00pm 33.2 34.9 24.1 59 6.4 NE 22 28 12 15 1006.2 1006.1 0.0
12/04:30pm 33.3 34.7 24.2 59 6.4 NNE 24 32 13 17 1006.1 1006.0 0.0
12/04:00pm 33.8 35.6 24.9 59 6.3 NE 24 35 13 19 1006.5 1006.4 0.0
12/03:30pm 33.8 35.6 25.5 62 5.9 NE 26 35 14 19 1006.5 1006.4 0.0
12/03:00pm 33.8 35.1 25.2 60 6.1 NNE 28 35 15 19 1006.6 1006.5 0.0
12/02:30pm 36.1 37.0 21.9 43 9.7 NNE 20 28 11 15 1007.7 1007.6 0.0
12/02:00pm 36.3 37.4 20.5 39 10.6 NNE 15 20 8 11 1007.7 1007.6 0.0
12/01:30pm 36.3 38.6 22.1 43 9.8 NNE 13 19 7 10 1008.2 1008.1 0.0
12/01:00pm 35.7 37.4 22.3 46 9.2 NNE 17 24 9 13 1008.6 1008.5 0.0
12/12:30pm 35.7 37.3 21.5 43 9.7 N 15 22 8 12 1008.9 1008.8 0.0
12/12:00pm 35.7 37.7 22.3 46 9.2 N 15 20 8 11 1009.4 1009.3 0.0
12/11:30am 35.0 38.0 24.0 53 7.7 N 15 20 8 11 1009.8 1009.7 0.0
12/11:00am 34.2 36.6 23.6 54 7.4 N 17 24 9 13 1010.1 1010.0 0.0
12/10:30am 34.9 38.0 24.8 55 7.2 NNW 17 24 9 13 1010.4 1010.3 0.0
12/10:00am 33.9 37.8 24.8 59 6.4 NW 13 19 7 10 1010.3 1010.2 0.0
12/09:30am 32.7 36.0 24.5 62 5.8 WNW 15 26 8 14 1010.4 1010.3 0.0
12/09:00am 32.6 35.5 24.4 62 5.8 WNW 17 24 9 13 1010.1 1010.0 0.0
12/08:30am 31.3 34.1 25.2 70 4.3 WNW 20 26 11 14 1010.2 1010.1 0.0
12/08:00am 31.5 35.1 25.6 71 4.2 W 17 22 9 12 1009.9 1009.8 0.0
12/07:30am 31.0 33.0 25.1 71 4.2 NW 24 30 13 16 1009.4 1009.3 0.0
12/07:00am 30.5 33.8 25.1 73 3.8 WNW 17 24 9 13 1009.3 1009.2 0.0
12/06:30am 29.4 33.3 24.9 77 3.2 NW 13 15 7 8 1008.9 1008.8 0.0
12/06:00am 28.9 32.7 24.7 78 2.9 WNW 13 17 7 9 1008.7 1008.6 0.0
12/05:30am 28.8 32.7 24.8 79 2.8 NW 13 17 7 9 1008.5 1008.4 0.0
12/05:00am 28.9 33.1 24.7 78 2.9 NW 11 15 6 8 1008.2 1008.1 0.0
12/04:30am 28.8 32.4 24.4 77 3.1 NW 13 17 7 9 1007.7 1007.6 0.0
12/04:00am 28.5 32.2 24.5 79 2.8 NW 13 17 7 9 1007.5 1007.4 0.0
12/03:30am 28.7 32.9 24.7 79 2.8 NW 11 13 6 7 1007.4 1007.3 0.0
12/03:00am 28.7 33.3 24.7 79 2.8 NNW 9 15 5 8 1007.4 1007.3 0.0
12/02:30am 28.9 33.7 25.1 80 2.7 N 9 17 5 9 1007.4 1007.3 0.0
12/02:00am 28.6 33.5 25.2 82 2.4 NNW 9 11 5 6 1007.3 1007.2 0.0
12/01:30am 29.2 33.9 25.0 78 3.0 N 9 13 5 7 1007.9 1007.8 0.0
12/01:00am 29.1 34.0 24.7 77 3.1 N 7 9 4 5 1008.2 1008.1 0.0
12/12:30am 29.6 33.9 24.9 76 3.3 N 11 17 6 9 1008.5 1008.4 0.0
12/12:00am 29.6 33.9 24.9 76 3.3 NNE 11 15 6 8 1008.9 1008.8 0.0
 
Date/Time
CST
Temp
°C
App
Temp
°C
Dew
Point
°C
Rel
Hum
%
Delta-T
°C
Wind Press
QNH
hPa
Press
MSL
hPa
Rain since
9am
mm
Dir  Spd
km/h
Gust
km/h
Spd
kts
Gust
kts
11/11:30pm 29.6 34.0 25.1 77 3.2 NNE 11 15 6 8 1009.0 1008.9 0.0
11/11:00pm 29.8 33.5 25.1 76 3.3 NNE 15 19 8 10 1009.4 1009.3 0.0
11/10:30pm 29.9 33.6 25.2 76 3.3 NNE 15 20 8 11 1009.3 1009.2 0.0
11/10:00pm 30.0 33.3 25.1 75 3.4 N 17 22 9 12 1009.0 1008.9 0.0
11/09:30pm 30.0 32.7 25.1 75 3.5 N 20 24 11 13 1008.8 1008.7 0.0
11/09:00pm 30.1 32.9 25.2 75 3.5 N 20 24 11 13 1008.6 1008.5 0.0
11/08:30pm 30.2 33.2 25.3 75 3.5 N 19 26 10 14 1008.4 1008.3 0.0
11/08:00pm 30.4 33.0 25.5 75 3.5 NNE 22 28 12 15 1008.2 1008.1 0.0
11/07:30pm 30.4 32.2 24.8 72 3.9 NNE 24 30 13 16 1008.0 1007.9 0.0
11/07:00pm 30.5 31.8 24.6 70 4.1 NNE 26 33 14 18 1007.6 1007.5 0.0
11/06:30pm 30.8 31.8 24.7 70 4.3 NNE 28 35 15 19 1007.5 1007.4 0.0
11/06:00pm 31.2 31.7 24.6 68 4.6 NNE 30 37 16 20 1007.1 1007.0 0.0
11/05:30pm 31.9 32.7 24.5 65 5.2 NNE 28 35 15 19 1007.1 1007.0 0.0
11/05:00pm 32.1 33.0 23.3 59 6.1 NE 24 33 13 18 1007.0 1006.9 0.0
11/04:30pm 32.4 33.5 24.4 62 5.6 NNE 26 33 14 18 1006.9 1006.8 0.0
11/04:00pm 31.8 32.4 24.7 66 5.0 NE 30 39 16 21 1007.0 1006.9 0.0
11/03:30pm 32.9 34.2 25.2 64 5.5 NE 28 37 15 20 1007.0 1006.9 0.0
11/03:00pm 34.3 35.4 23.6 53 7.5 NE 24 32 13 17 1007.1 1007.0 0.0
11/02:30pm 34.8 36.7 24.4 54 7.3 NE 22 28 12 15 1007.4 1007.3 0.0
11/02:00pm 34.2 36.9 25.0 58 6.5 NE 20 26 11 14 1007.9 1007.8 0.0
11/01:30pm 35.1 36.3 22.1 47 8.9 NE 19 22 10 12 1008.3 1008.2 0.0
11/01:00pm 35.3 38.6 23.9 51 8.0 NE 13 19 7 10 1008.9 1008.8 0.0
11/12:30pm 35.4 38.4 22.7 47 8.8 NE 11 15 6 8 1009.3 1009.2 0.0
11/12:00pm 34.6 37.9 22.6 49 8.3 NW 9 15 5 8 1009.8 1009.7 0.0
11/11:30am 35.1 39.1 25.0 56 7.2 NW 13 22 7 12 1010.3 1010.2 0.0
11/11:00am 34.6 38.3 24.5 55 7.1 N 13 20 7 11 1010.5 1010.4 0.0
11/10:30am 34.1 37.2 23.5 54 7.4 N 13 20 7 11 1010.9 1010.8 0.0
11/10:00am 33.3 36.6 23.9 58 6.6 NNW 13 19 7 10 1011.2 1011.1 0.0
11/09:30am 33.0 36.1 24.2 60 6.2 N 15 20 8 11 1011.5 1011.4 0.0
11/09:00am 33.2 36.9 25.2 63 5.7 N 15 22 8 12 1011.4 1011.3 0.0
11/08:30am 31.7 34.8 24.8 67 4.9 WNW 17 24 9 13 1010.9 1010.8 0.0
11/08:00am 31.1 34.8 24.5 68 4.6 WNW 13 17 7 9 1010.5 1010.4 0.0
11/07:30am 30.1 35.0 25.2 75 3.5 WNW 9 13 5 7 1010.3 1010.2 0.0
11/07:00am 29.2 34.8 25.4 80 2.7 W 6 7 3 4 1010.2 1010.1 0.0
11/06:30am 28.4 34.0 25.8 86 1.8 W 7 9 4 5 1009.8 1009.7 0.0
11/06:00am 27.9 33.2 25.9 89 1.4 WNW 9 9 5 5 1009.5 1009.4 0.0
11/05:30am 28.1 33.4 25.9 88 1.6 W 9 11 5 6 1009.3 1009.2 0.0
11/05:00am 28.5 33.1 25.9 86 1.8 W 13 17 7 9 1009.0 1008.9 0.0
11/04:30am 28.7 33.3 25.3 82 2.4 WSW 11 15 6 8 1008.8 1008.7 0.0
11/04:00am 28.7 33.0 26.1 86 1.8 SSW 15 17 8 9 1008.7 1008.6 0.0
11/03:30am 28.9 33.7 26.3 86 1.9 SW 13 19 7 10 1008.5 1008.4 0.0
11/03:00am 28.6 33.9 25.2 82 2.4 SW 7 11 4 6 1008.4 1008.3 0.0
11/02:30am 28.6 34.1 25.6 84 2.1 WSW 7 11 4 6 1008.4 1008.3 0.0
11/02:00am 28.8 33.9 25.6 83 2.3 W 9 11 5 6 1008.7 1008.6 0.0
11/01:30am 28.7 34.1 25.5 83 2.3 S 7 9 4 5 1009.3 1009.2 0.0
11/01:00am 28.7 34.2 25.3 82 2.4 NNW 6 11 3 6 1009.0 1008.9 0.0
11/12:30am 28.7 33.9 25.1 81 2.5 NW 7 11 4 6 1009.3 1009.2 0.0
11/12:00am 29.2 34.2 25.4 80 2.7 N 9 15 5 8 1009.5 1009.4 0.0
 
Date/Time
CST
Temp
°C
App
Temp
°C
Dew
Point
°C
Rel
Hum
%
Delta-T
°C
Wind Press
QNH
hPa
Press
MSL
hPa
Rain since
9am
mm
Dir  Spd
km/h
Gust
km/h
Spd
kts
Gust
kts
10/11:30pm 29.5 33.3 25.3 78 3.0 N 15 20 8 11 1009.4 1009.3 0.0
10/11:00pm 29.6 33.5 25.4 78 3.0 N 15 19 8 10 1009.5 1009.4 0.0
10/10:30pm 29.9 33.9 25.6 78 3.0 NNE 15 20 8 11 1009.7 1009.6 0.0
10/10:00pm 29.9 32.9 25.2 76 3.3 NNE 19 24 10 13 1009.8 1009.7 0.0
10/09:30pm 29.9 32.9 25.2 76 3.3 NNE 19 24 10 13 1009.5 1009.4 0.0
10/09:00pm 30.0 33.0 25.5 77 3.2 NNE 20 26 11 14 1009.3 1009.2 0.0
10/08:30pm 30.1 33.0 25.4 76 3.3 NE 20 28 11 15 1008.9 1008.8 0.0
10/08:00pm 30.1 32.9 25.2 75 3.5 NE 20 26 11 14 1008.7 1008.6 0.0
10/07:30pm 30.2 33.3 25.7 77 3.2 NNE 20 26 11 14 1008.6 1008.5 0.0
10/07:00pm 30.3 33.4 25.4 75 3.5 NNE 19 24 10 13 1008.4 1008.3 0.0
10/06:30pm 30.5 32.8 25.1 73 3.8 NE 22 26 12 14 1008.2 1008.1 0.0
10/06:00pm 31.1 34.2 25.4 71 4.0 NNE 19 26 10 14 1007.9 1007.8 0.0
10/05:30pm 31.7 33.7 24.6 66 5.0 NNE 22 30 12 16 1007.8 1007.7 0.0
10/05:00pm 32.4 33.3 23.9 61 5.9 NNE 26 32 14 17 1007.9 1007.8 0.0
10/04:30pm 32.7 34.6 25.0 64 5.4 NNE 24 30 13 16 1008.1 1008.0 0.0
10/04:00pm 32.8 34.4 25.1 64 5.4 NNE 26 32 14 17 1008.1 1008.0 0.0
10/03:30pm 33.3 35.0 25.3 63 5.7 NNE 26 32 14 17 1008.2 1008.1 0.0
10/03:00pm 33.9 35.2 25.3 60 6.1 NE 28 35 15 19 1008.2 1008.1 0.0
10/02:30pm 33.8 36.4 25.5 62 5.9 NE 22 30 12 16 1008.3 1008.2 0.0
10/02:00pm 34.5 37.6 24.1 54 7.3 NE 15 19 8 10 1008.4 1008.3 0.0
10/01:30pm 34.6 37.5 23.9 53 7.5 NE 15 19 8 10 1008.7 1008.6 0.0
10/01:00pm 34.5 38.1 24.4 55 7.1 ENE 13 15 7 8 1009.2 1009.1 0.0
10/12:30pm 33.5 37.5 24.4 59 6.4 NE 11 13 6 7 1009.6 1009.5 0.0
10/12:00pm 34.2 38.6 25.0 58 6.5 ENE 11 15 6 8 1010.1 1010.0 0.0
10/11:30am 33.2 37.3 25.2 63 5.7 E 13 17 7 9 1010.4 1010.3 0.0
10/11:00am 31.7 35.0 23.8 63 5.5 E 13 17 7 9 1010.6 1010.5 0.0
10/10:30am 31.9 35.8 24.2 63 5.4 NE 11 13 6 7 1010.6 1010.5 0.0
10/10:00am 31.9 36.3 24.5 65 5.2 ESE 9 11 5 6 1011.5 1011.4 0.0
10/09:30am 31.6 36.4 24.5 66 5.0 WSW 7 11 4 6 1011.4 1011.3 0.0
10/09:00am 31.4 35.6 24.8 68 4.6 SSW 11 13 6 7 1011.4 1011.3 0.0
10/08:30am 30.9 35.0 24.5 68 4.5 SSW 11 15 6 8 1011.3 1011.2 0.0
10/08:00am 30.3 34.7 24.4 70 4.1 S 9 13 5 7 1010.9 1010.8 0.0
10/07:30am 29.8 34.1 24.2 72 3.9 S 9 11 5 6 1010.8 1010.7 0.0
10/07:00am 29.7 34.2 24.6 74 3.6 S 9 13 5 7 1010.6 1010.5 0.0
10/06:30am 28.6 32.3 24.6 79 2.8 S 13 17 7 9 1010.5 1010.4 0.0
10/06:00am 27.8 32.6 24.2 81 2.5 WSW 6 7 3 4 1010.1 1010.0 0.0
10/05:30am 28.1 30.2 24.1 79 2.8 S 20 37 11 20 1009.4 1009.3 0.0
10/05:00am 28.1 30.2 25.3 85 2.0 S 24 32 13 17 1009.5 1009.4 0.0
10/04:30am 27.4 32.3 24.7 85 1.9 WNW 7 9 4 5 1008.3 1008.2 0.0
10/04:00am 28.3 32.6 24.9 82 2.4 W 11 15 6 8 1007.9 1007.8 0.0
10/03:30am 27.8 32.4 24.8 84 2.1 WSW 9 11 5 6 1008.1 1008.0 0.0
10/03:00am 27.6 32.4 24.2 82 2.4 W 6 7 3 4 1008.2 1008.1 0.0
10/02:30am 27.7 32.4 23.9 80 2.6 WNW 6 7 3 4 1008.2 1008.1 0.0
10/02:00am 27.7 32.2 23.9 80 2.6 WNW 7 9 4 5 1008.1 1008.0 0.0
10/01:30am 27.9 32.5 24.1 80 2.6 WNW 7 7 4 4 1008.2 1008.1 0.0
10/01:00am 28.2 32.8 24.2 79 2.8 NW 7 11 4 6 1008.6 1008.5 0.0
10/12:30am 28.3 32.5 24.1 78 2.9 NNW 9 13 5 7 1008.9 1008.8 0.0
10/12:00am 28.6 32.7 23.9 75 3.3 NNW 9 11 5 6 1009.4 1009.3 0.0

Other Formats:

Comma delimited format used in spreadsheet applications
http://www.bom.gov.au/fwo/IDD60801/IDD60801.94248.axf

JavaScript Object Notation format (JSON) in row-major order
http://www.bom.gov.au/fwo/IDD60801/IDD60801.94248.json